sensor_id;sensor_type;location;lat;lon;timestamp;P1;durP1;ratioP1;P2;durP2;ratioP2
38085;SDS011;23896;50.678;10.924;2024-02-04T01:47:29;1.55;;;1.45;;
38085;SDS011;23896;50.678;10.924;2024-02-04T01:49:55;1.65;;;1.55;;
38085;SDS011;23896;50.678;10.924;2024-02-04T01:52:21;1.70;;;1.60;;
38085;SDS011;23896;50.678;10.924;2024-02-04T02:00:58;1.38;;;1.38;;
38085;SDS011;23896;50.678;10.924;2024-02-04T02:03:26;1.48;;;1.38;;
38085;SDS011;23896;50.678;10.924;2024-02-04T02:05:52;1.30;;;1.20;;
38085;SDS011;23896;50.678;10.924;2024-02-04T02:08:18;1.50;;;1.40;;
38085;SDS011;23896;50.678;10.924;2024-02-04T02:10:44;1.10;;;1.10;;
38085;SDS011;23896;50.678;10.924;2024-02-04T02:13:18;1.65;;;1.55;;
38085;SDS011;23896;50.678;10.924;2024-02-04T02:15:48;1.65;;;1.55;;
38085;SDS011;23896;50.678;10.924;2024-02-04T02:18:18;2.55;;;1.60;;
38085;SDS011;23896;50.678;10.924;2024-02-04T02:23:30;1.60;;;1.50;;
38085;SDS011;23896;50.678;10.924;2024-02-04T02:32:04;1.15;;;1.13;;
38085;SDS011;23896;50.678;10.924;2024-02-04T02:34:30;1.70;;;1.60;;
38085;SDS011;23896;50.678;10.924;2024-02-04T02:36:59;1.50;;;1.40;;
38085;SDS011;23896;50.678;10.924;2024-02-04T02:39:31;1.20;;;1.20;;
38085;SDS011;23896;50.678;10.924;2024-02-04T02:41:59;1.90;;;1.52;;
38085;SDS011;23896;50.678;10.924;2024-02-04T02:44:28;1.17;;;1.17;;
38085;SDS011;23896;50.678;10.924;2024-02-04T02:46:55;1.20;;;1.10;;
38085;SDS011;23896;50.678;10.924;2024-02-04T02:49:22;1.52;;;1.42;;
38085;SDS011;23896;50.678;10.924;2024-02-04T02:51:49;1.40;;;1.30;;
38085;SDS011;23896;50.678;10.924;2024-02-04T02:54:15;1.45;;;1.35;;
38085;SDS011;23896;50.678;10.924;2024-02-04T02:56:41;1.45;;;1.35;;
38085;SDS011;23896;50.678;10.924;2024-02-04T02:59:07;1.30;;;1.23;;
38085;SDS011;23896;50.678;10.924;2024-02-04T03:01:39;1.20;;;1.15;;
38085;SDS011;23896;50.678;10.924;2024-02-04T03:04:05;1.30;;;1.20;;
38085;SDS011;23896;50.678;10.924;2024-02-04T03:06:31;1.70;;;1.60;;
38085;SDS011;23896;50.678;10.924;2024-02-04T03:09:01;1.45;;;1.35;;
38085;SDS011;23896;50.678;10.924;2024-02-04T03:11:28;1.50;;;1.40;;
38085;SDS011;23896;50.678;10.924;2024-02-04T03:14:09;1.50;;;1.40;;
38085;SDS011;23896;50.678;10.924;2024-02-04T03:16:39;1.50;;;1.40;;
38085;SDS011;23896;50.678;10.924;2024-02-04T03:19:06;2.10;;;1.63;;
38085;SDS011;23896;50.678;10.924;2024-02-04T03:21:32;1.42;;;1.33;;
38085;SDS011;23896;50.678;10.924;2024-02-04T03:23:58;2.03;;;1.92;;
38085;SDS011;23896;50.678;10.924;2024-02-04T03:26:27;2.17;;;1.45;;
38085;SDS011;23896;50.678;10.924;2024-02-04T07:04:07;0.50;;;0.50;;
38085;SDS011;23896;50.678;10.924;2024-02-04T07:09:57;1.10;;;0.70;;
38085;SDS011;23896;50.678;10.924;2024-02-04T07:18:57;0.50;;;0.50;;
38085;SDS011;23896;50.678;10.924;2024-02-04T07:24:49;0.40;;;0.40;;
38085;SDS011;23896;50.678;10.924;2024-02-04T07:27:30;0.60;;;0.60;;
38085;SDS011;23896;50.678;10.924;2024-02-04T07:30:21;0.52;;;0.52;;
38085;SDS011;23896;50.678;10.924;2024-02-04T07:33:11;0.60;;;0.60;;
38085;SDS011;23896;50.678;10.924;2024-02-04T07:35:37;0.57;;;0.57;;
38085;SDS011;23896;50.678;10.924;2024-02-04T07:38:24;0.65;;;0.40;;
38085;SDS011;23896;50.678;10.924;2024-02-04T07:40:50;0.43;;;0.43;;
38085;SDS011;23896;50.678;10.924;2024-02-04T07:43:16;0.50;;;0.50;;
38085;SDS011;23896;50.678;10.924;2024-02-04T07:45:44;0.90;;;0.90;;
38085;SDS011;23896;50.678;10.924;2024-02-04T07:48:10;0.40;;;0.40;;
38085;SDS011;23896;50.678;10.924;2024-02-04T07:50:43;0.60;;;0.60;;
38085;SDS011;23896;50.678;10.924;2024-02-04T07:53:10;1.38;;;0.70;;
38085;SDS011;23896;50.678;10.924;2024-02-04T07:55:38;0.40;;;0.40;;
38085;SDS011;23896;50.678;10.924;2024-02-04T07:58:05;0.40;;;0.40;;
38085;SDS011;23896;50.678;10.924;2024-02-04T08:00:31;0.45;;;0.45;;
38085;SDS011;23896;50.678;10.924;2024-02-04T08:02:57;0.50;;;0.50;;
38085;SDS011;23896;50.678;10.924;2024-02-04T08:05:24;0.60;;;0.60;;
38085;SDS011;23896;50.678;10.924;2024-02-04T08:07:51;0.88;;;0.80;;
38085;SDS011;23896;50.678;10.924;2024-02-04T08:10:20;0.75;;;0.75;;
38085;SDS011;23896;50.678;10.924;2024-02-04T08:12:46;1.25;;;0.93;;
38085;SDS011;23896;50.678;10.924;2024-02-04T08:15:17;0.80;;;0.80;;
38085;SDS011;23896;50.678;10.924;2024-02-04T08:17:43;1.17;;;0.85;;
38085;SDS011;23896;50.678;10.924;2024-02-04T08:20:09;2.45;;;1.00;;
38085;SDS011;23896;50.678;10.924;2024-02-04T08:22:36;1.30;;;0.95;;
38085;SDS011;23896;50.678;10.924;2024-02-04T08:25:03;1.10;;;1.00;;
38085;SDS011;23896;50.678;10.924;2024-02-04T08:27:39;1.00;;;0.90;;
38085;SDS011;23896;50.678;10.924;2024-02-04T08:36:51;1.20;;;1.10;;
38085;SDS011;23896;50.678;10.924;2024-02-04T08:39:20;2.03;;;1.02;;
38085;SDS011;23896;50.678;10.924;2024-02-04T08:41:47;1.42;;;1.20;;
38085;SDS011;23896;50.678;10.924;2024-02-04T08:44:13;2.22;;;1.00;;
38085;SDS011;23896;50.678;10.924;2024-02-04T08:55:50;1.00;;;1.00;;
38085;SDS011;23896;50.678;10.924;2024-02-04T08:58:16;1.20;;;1.10;;
38085;SDS011;23896;50.678;10.924;2024-02-04T09:00:45;1.65;;;1.30;;
38085;SDS011;23896;50.678;10.924;2024-02-04T09:15:28;1.55;;;1.38;;
38085;SDS011;23896;50.678;10.924;2024-02-04T09:17:54;2.28;;;1.35;;
38085;SDS011;23896;50.678;10.924;2024-02-04T09:32:44;1.25;;;1.15;;
38085;SDS011;23896;50.678;10.924;2024-02-04T09:35:31;1.25;;;1.15;;
38085;SDS011;23896;50.678;10.924;2024-02-04T09:37:59;2.03;;;1.83;;
38085;SDS011;23896;50.678;10.924;2024-02-04T09:43:35;1.80;;;1.58;;
38085;SDS011;23896;50.678;10.924;2024-02-04T09:46:09;1.40;;;1.30;;
38085;SDS011;23896;50.678;10.924;2024-02-04T09:48:35;1.10;;;1.10;;
38085;SDS011;23896;50.678;10.924;2024-02-04T09:51:40;2.13;;;1.27;;
38085;SDS011;23896;50.678;10.924;2024-02-04T10:00:22;0.90;;;0.90;;
38085;SDS011;23896;50.678;10.924;2024-02-04T10:02:53;2.80;;;0.85;;
38085;SDS011;23896;50.678;10.924;2024-02-04T10:05:22;0.70;;;0.70;;
38085;SDS011;23896;50.678;10.924;2024-02-04T10:16:57;0.80;;;0.80;;
38085;SDS011;23896;50.678;10.924;2024-02-04T10:19:25;3.17;;;2.80;;
38085;SDS011;23896;50.678;10.924;2024-02-04T10:21:58;0.70;;;0.70;;
38085;SDS011;23896;50.678;10.924;2024-02-04T10:36:36;2.30;;;0.82;;
38085;SDS011;23896;50.678;10.924;2024-02-04T10:39:03;1.55;;;1.02;;
38085;SDS011;23896;50.678;10.924;2024-02-04T10:41:29;0.70;;;0.70;;
38085;SDS011;23896;50.678;10.924;2024-02-04T10:47:20;0.80;;;0.80;;
38085;SDS011;23896;50.678;10.924;2024-02-04T10:49:54;0.88;;;0.73;;
38085;SDS011;23896;50.678;10.924;2024-02-04T10:52:34;1.30;;;1.15;;
38085;SDS011;23896;50.678;10.924;2024-02-04T11:17:18;0.55;;;0.55;;
38085;SDS011;23896;50.678;10.924;2024-02-04T11:22:36;0.60;;;0.60;;
38085;SDS011;23896;50.678;10.924;2024-02-04T11:28:40;0.60;;;0.60;;
38085;SDS011;23896;50.678;10.924;2024-02-04T11:31:13;1.40;;;0.80;;
38085;SDS011;23896;50.678;10.924;2024-02-04T11:33:42;0.50;;;0.50;;
38085;SDS011;23896;50.678;10.924;2024-02-04T11:36:12;0.50;;;0.50;;
38085;SDS011;23896;50.678;10.924;2024-02-04T11:38:39;0.60;;;0.60;;
38085;SDS011;23896;50.678;10.924;2024-02-04T11:41:09;0.70;;;0.70;;
38085;SDS011;23896;50.678;10.924;2024-02-04T11:46:45;0.60;;;0.60;;
38085;SDS011;23896;50.678;10.924;2024-02-04T11:49:27;0.45;;;0.45;;
38085;SDS011;23896;50.678;10.924;2024-02-04T11:55:06;2.53;;;0.52;;
38085;SDS011;23896;50.678;10.924;2024-02-04T11:57:44;0.70;;;0.70;;
38085;SDS011;23896;50.678;10.924;2024-02-04T12:00:11;1.42;;;0.95;;
38085;SDS011;23896;50.678;10.924;2024-02-04T12:18:04;0.50;;;0.50;;
38085;SDS011;23896;50.678;10.924;2024-02-04T12:20:31;0.63;;;0.60;;
38085;SDS011;23896;50.678;10.924;2024-02-04T12:22:57;0.40;;;0.40;;
38085;SDS011;23896;50.678;10.924;2024-02-04T13:15:16;0.70;;;0.70;;
38085;SDS011;23896;50.678;10.924;2024-02-04T13:17:44;0.50;;;0.50;;
38085;SDS011;23896;50.678;10.924;2024-02-04T13:20:10;0.50;;;0.50;;
38085;SDS011;23896;50.678;10.924;2024-02-04T13:22:37;0.70;;;0.70;;
38085;SDS011;23896;50.678;10.924;2024-02-04T13:55:45;0.60;;;0.60;;
38085;SDS011;23896;50.678;10.924;2024-02-04T13:58:11;0.73;;;0.73;;
38085;SDS011;23896;50.678;10.924;2024-02-04T14:00:39;0.60;;;0.60;;
38085;SDS011;23896;50.678;10.924;2024-02-04T14:03:05;0.73;;;0.73;;
38085;SDS011;23896;50.678;10.924;2024-02-04T14:17:47;0.95;;;0.70;;
38085;SDS011;23896;50.678;10.924;2024-02-04T14:20:16;1.63;;;1.52;;
38085;SDS011;23896;50.678;10.924;2024-02-04T14:22:43;0.70;;;0.70;;
38085;SDS011;23896;50.678;10.924;2024-02-04T14:25:09;0.85;;;0.68;;
38085;SDS011;23896;50.678;10.924;2024-02-04T14:27:38;0.88;;;0.60;;
38085;SDS011;23896;50.678;10.924;2024-02-04T14:30:12;0.68;;;0.68;;
38085;SDS011;23896;50.678;10.924;2024-02-04T14:32:39;0.60;;;0.60;;
38085;SDS011;23896;50.678;10.924;2024-02-04T14:35:06;0.80;;;0.80;;
38085;SDS011;23896;50.678;10.924;2024-02-04T14:37:34;0.63;;;0.60;;
38085;SDS011;23896;50.678;10.924;2024-02-04T14:43:04;0.80;;;0.80;;
38085;SDS011;23896;50.678;10.924;2024-02-04T14:45:30;0.60;;;0.60;;
38085;SDS011;23896;50.678;10.924;2024-02-04T14:47:56;0.88;;;0.80;;
38085;SDS011;23896;50.678;10.924;2024-02-04T15:05:41;0.60;;;0.60;;
38085;SDS011;23896;50.678;10.924;2024-02-04T15:08:08;0.70;;;0.70;;
38085;SDS011;23896;50.678;10.924;2024-02-04T15:10:35;0.50;;;0.50;;
38085;SDS011;23896;50.678;10.924;2024-02-04T15:19:10;0.70;;;0.70;;
38085;SDS011;23896;50.678;10.924;2024-02-04T15:21:38;1.30;;;1.20;;
38085;SDS011;23896;50.678;10.924;2024-02-04T15:24:04;0.65;;;0.65;;
38085;SDS011;23896;50.678;10.924;2024-02-04T15:26:42;0.63;;;0.60;;
38085;SDS011;23896;50.678;10.924;2024-02-04T15:29:10;0.50;;;0.50;;
38085;SDS011;23896;50.678;10.924;2024-02-04T15:31:41;0.60;;;0.60;;
38085;SDS011;23896;50.678;10.924;2024-02-04T15:34:08;0.50;;;0.50;;
38085;SDS011;23896;50.678;10.924;2024-02-04T15:36:36;0.50;;;0.50;;
38085;SDS011;23896;50.678;10.924;2024-02-04T15:39:04;0.60;;;0.60;;
38085;SDS011;23896;50.678;10.924;2024-02-04T16:15:14;0.70;;;0.70;;
38085;SDS011;23896;50.678;10.924;2024-02-04T16:17:42;0.40;;;0.40;;
38085;SDS011;23896;50.678;10.924;2024-02-04T16:20:14;0.57;;;0.57;;
38085;SDS011;23896;50.678;10.924;2024-02-04T16:22:47;0.60;;;0.60;;
38085;SDS011;23896;50.678;10.924;2024-02-04T16:39:56;0.85;;;0.85;;
38085;SDS011;23896;50.678;10.924;2024-02-04T16:42:33;0.40;;;0.40;;
38085;SDS011;23896;50.678;10.924;2024-02-04T16:45:03;0.77;;;0.77;;
38085;SDS011;23896;50.678;10.924;2024-02-04T16:47:34;0.60;;;0.60;;
38085;SDS011;23896;50.678;10.924;2024-02-04T16:50:01;0.60;;;0.60;;
38085;SDS011;23896;50.678;10.924;2024-02-04T16:52:28;0.70;;;0.70;;
38085;SDS011;23896;50.678;10.924;2024-02-04T17:00:47;0.40;;;0.40;;
38085;SDS011;23896;50.678;10.924;2024-02-04T17:03:15;0.60;;;0.60;;
38085;SDS011;23896;50.678;10.924;2024-02-04T17:05:42;0.55;;;0.55;;
38085;SDS011;23896;50.678;10.924;2024-02-04T17:08:24;0.70;;;0.70;;
38085;SDS011;23896;50.678;10.924;2024-02-04T17:10:52;0.80;;;0.80;;
38085;SDS011;23896;50.678;10.924;2024-02-04T17:13:24;0.60;;;0.60;;
38085;SDS011;23896;50.678;10.924;2024-02-04T17:16:04;0.60;;;0.60;;
38085;SDS011;23896;50.678;10.924;2024-02-04T17:18:42;0.80;;;0.80;;
38085;SDS011;23896;50.678;10.924;2024-02-04T17:24:14;0.60;;;0.60;;
38085;SDS011;23896;50.678;10.924;2024-02-04T17:26:48;0.60;;;0.60;;
38085;SDS011;23896;50.678;10.924;2024-02-04T17:35:27;1.55;;;1.00;;
38085;SDS011;23896;50.678;10.924;2024-02-04T17:37:55;0.52;;;0.52;;
38085;SDS011;23896;50.678;10.924;2024-02-04T17:40:22;0.65;;;0.65;;
38085;SDS011;23896;50.678;10.924;2024-02-04T17:42:48;0.68;;;0.68;;
38085;SDS011;23896;50.678;10.924;2024-02-04T17:45:14;0.77;;;0.77;;
38085;SDS011;23896;50.678;10.924;2024-02-04T17:47:40;2.88;;;0.70;;
38085;SDS011;23896;50.678;10.924;2024-02-04T17:50:08;2.08;;;0.80;;
38085;SDS011;23896;50.678;10.924;2024-02-04T17:52:36;0.95;;;0.85;;
38085;SDS011;23896;50.678;10.924;2024-02-04T17:55:02;0.50;;;0.50;;
38085;SDS011;23896;50.678;10.924;2024-02-04T17:57:34;0.95;;;0.70;;
38085;SDS011;23896;50.678;10.924;2024-02-04T18:00:28;0.77;;;0.77;;
38085;SDS011;23896;50.678;10.924;2024-02-04T18:02:56;0.80;;;0.80;;
38085;SDS011;23896;50.678;10.924;2024-02-04T18:05:38;0.55;;;0.55;;
38085;SDS011;23896;50.678;10.924;2024-02-04T18:08:13;0.50;;;0.50;;
38085;SDS011;23896;50.678;10.924;2024-02-04T18:13:43;0.68;;;0.68;;
38085;SDS011;23896;50.678;10.924;2024-02-04T18:16:10;0.70;;;0.70;;
38085;SDS011;23896;50.678;10.924;2024-02-04T18:18:37;0.68;;;0.68;;
38085;SDS011;23896;50.678;10.924;2024-02-04T18:21:03;1.35;;;0.88;;
38085;SDS011;23896;50.678;10.924;2024-02-04T18:29:58;1.42;;;1.00;;
38085;SDS011;23896;50.678;10.924;2024-02-04T18:32:47;0.93;;;0.93;;
38085;SDS011;23896;50.678;10.924;2024-02-04T18:35:14;1.25;;;0.95;;
38085;SDS011;23896;50.678;10.924;2024-02-04T18:40:44;0.70;;;0.70;;
38085;SDS011;23896;50.678;10.924;2024-02-04T18:43:10;0.60;;;0.60;;
38085;SDS011;23896;50.678;10.924;2024-02-04T19:04:39;0.50;;;0.50;;
38085;SDS011;23896;50.678;10.924;2024-02-04T19:07:06;0.70;;;0.70;;
38085;SDS011;23896;50.678;10.924;2024-02-04T19:09:32;0.60;;;0.60;;
38085;SDS011;23896;50.678;10.924;2024-02-04T19:12:02;0.60;;;0.60;;
38085;SDS011;23896;50.678;10.924;2024-02-04T19:17:44;1.27;;;1.17;;
38085;SDS011;23896;50.678;10.924;2024-02-04T19:20:18;0.98;;;0.98;;
38085;SDS011;23896;50.678;10.924;2024-02-04T19:44:13;1.03;;;0.90;;
38085;SDS011;23896;50.678;10.924;2024-02-04T19:46:47;0.60;;;0.60;;
38085;SDS011;23896;50.678;10.924;2024-02-04T19:49:16;1.20;;;0.80;;
38085;SDS011;23896;50.678;10.924;2024-02-04T19:51:42;0.70;;;0.70;;
38085;SDS011;23896;50.678;10.924;2024-02-04T19:54:20;0.70;;;0.70;;
38085;SDS011;23896;50.678;10.924;2024-02-04T20:14:34;0.60;;;0.60;;
38085;SDS011;23896;50.678;10.924;2024-02-04T20:17:19;0.60;;;0.60;;
38085;SDS011;23896;50.678;10.924;2024-02-04T20:19:46;2.22;;;0.85;;
38085;SDS011;23896;50.678;10.924;2024-02-04T20:28:41;0.80;;;0.80;;
38085;SDS011;23896;50.678;10.924;2024-02-04T20:31:07;0.63;;;0.63;;
38085;SDS011;23896;50.678;10.924;2024-02-04T20:42:45;0.50;;;0.50;;
38085;SDS011;23896;50.678;10.924;2024-02-04T20:45:20;0.60;;;0.60;;
38085;SDS011;23896;50.678;10.924;2024-02-04T20:48:09;0.50;;;0.50;;
38085;SDS011;23896;50.678;10.924;2024-02-04T20:50:36;0.50;;;0.50;;
38085;SDS011;23896;50.678;10.924;2024-02-04T20:53:22;0.50;;;0.50;;
38085;SDS011;23896;50.678;10.924;2024-02-04T20:56:07;0.50;;;0.50;;
38085;SDS011;23896;50.678;10.924;2024-02-04T21:10:35;0.50;;;0.50;;
38085;SDS011;23896;50.678;10.924;2024-02-04T21:13:03;0.93;;;0.50;;
38085;SDS011;23896;50.678;10.924;2024-02-04T21:18:32;0.50;;;0.50;;
38085;SDS011;23896;50.678;10.924;2024-02-04T21:21:05;0.50;;;0.50;;
38085;SDS011;23896;50.678;10.924;2024-02-04T21:23:50;0.50;;;0.50;;
38085;SDS011;23896;50.678;10.924;2024-02-04T21:26:16;0.50;;;0.50;;
38085;SDS011;23896;50.678;10.924;2024-02-04T21:31:39;0.60;;;0.60;;
38085;SDS011;23896;50.678;10.924;2024-02-04T21:42:20;0.60;;;0.60;;
38085;SDS011;23896;50.678;10.924;2024-02-04T21:45:10;0.50;;;0.50;;
38085;SDS011;23896;50.678;10.924;2024-02-04T21:47:36;0.50;;;0.50;;
38085;SDS011;23896;50.678;10.924;2024-02-04T21:50:08;0.50;;;0.50;;
38085;SDS011;23896;50.678;10.924;2024-02-04T21:52:36;0.68;;;0.50;;
38085;SDS011;23896;50.678;10.924;2024-02-04T21:58:10;0.50;;;0.50;;
38085;SDS011;23896;50.678;10.924;2024-02-04T22:00:36;0.50;;;0.50;;
38085;SDS011;23896;50.678;10.924;2024-02-04T22:03:03;0.50;;;0.50;;
38085;SDS011;23896;50.678;10.924;2024-02-04T22:08:18;0.85;;;0.68;;
38085;SDS011;23896;50.678;10.924;2024-02-04T22:10:47;0.50;;;0.50;;
38085;SDS011;23896;50.678;10.924;2024-02-04T22:13:15;0.60;;;0.60;;
38085;SDS011;23896;50.678;10.924;2024-02-04T22:24:53;0.50;;;0.50;;
38085;SDS011;23896;50.678;10.924;2024-02-04T22:27:19;0.60;;;0.60;;
38085;SDS011;23896;50.678;10.924;2024-02-04T22:29:49;0.60;;;0.60;;
38085;SDS011;23896;50.678;10.924;2024-02-04T22:38:23;1.05;;;0.63;;
38085;SDS011;23896;50.678;10.924;2024-02-04T22:40:50;0.50;;;0.50;;
38085;SDS011;23896;50.678;10.924;2024-02-04T22:43:35;0.85;;;0.60;;
38085;SDS011;23896;50.678;10.924;2024-02-04T22:46:01;0.50;;;0.50;;
38085;SDS011;23896;50.678;10.924;2024-02-04T22:57:56;0.50;;;0.50;;
38085;SDS011;23896;50.678;10.924;2024-02-04T23:06:47;0.50;;;0.50;;
38085;SDS011;23896;50.678;10.924;2024-02-04T23:09:14;0.50;;;0.50;;
38085;SDS011;23896;50.678;10.924;2024-02-04T23:11:42;0.45;;;0.45;;
38085;SDS011;23896;50.678;10.924;2024-02-04T23:14:08;0.60;;;0.60;;
38085;SDS011;23896;50.678;10.924;2024-02-04T23:16:34;0.50;;;0.50;;
38085;SDS011;23896;50.678;10.924;2024-02-04T23:30:45;0.60;;;0.60;;
38085;SDS011;23896;50.678;10.924;2024-02-04T23:36:31;0.68;;;0.60;;
38085;SDS011;23896;50.678;10.924;2024-02-04T23:41:51;0.50;;;0.50;;
38085;SDS011;23896;50.678;10.924;2024-02-04T23:44:47;0.60;;;0.60;;
38085;SDS011;23896;50.678;10.924;2024-02-04T23:47:36;0.50;;;0.50;;
38085;SDS011;23896;50.678;10.924;2024-02-04T23:50:07;0.50;;;0.50;;
38085;SDS011;23896;50.678;10.924;2024-02-04T23:58:58;0.50;;;0.50;;
